sensor_id;sensor_type;location;lat;lon;timestamp;pressure;altitude;pressure_sealevel;temperature;humidity
72118;BME280;59992;47.490;8.736;2023-02-28T00:01:57;96908.41;;;-0.88;70.20
72118;BME280;59992;47.490;8.736;2023-02-28T00:04:28;96908.13;;;-0.85;70.32
72118;BME280;59992;47.490;8.736;2023-02-28T00:06:58;96905.41;;;-0.85;70.22
72118;BME280;59992;47.490;8.736;2023-02-28T00:09:27;96904.09;;;-0.84;70.15
72118;BME280;59992;47.490;8.736;2023-02-28T00:11:57;96902.08;;;-0.84;70.31
72118;BME280;59992;47.490;8.736;2023-02-28T00:14:26;96900.69;;;-0.86;70.26
72118;BME280;59992;47.490;8.736;2023-02-28T00:16:56;96895.39;;;-0.87;70.36
72118;BME280;59992;47.490;8.736;2023-02-28T00:19:26;96894.15;;;-0.88;70.30
72118;BME280;59992;47.490;8.736;2023-02-28T00:21:55;96890.59;;;-0.90;70.52
72118;BME280;59992;47.490;8.736;2023-02-28T00:24:25;96890.73;;;-0.93;70.59
72118;BME280;59992;47.490;8.736;2023-02-28T00:26:54;96891.52;;;-0.94;70.43
72118;BME280;59992;47.490;8.736;2023-02-28T00:29:24;96890.33;;;-0.94;70.48
72118;BME280;59992;47.490;8.736;2023-02-28T00:31:53;96897.11;;;-0.93;70.45
72118;BME280;59992;47.490;8.736;2023-02-28T00:34:23;96892.82;;;-0.94;70.57
72118;BME280;59992;47.490;8.736;2023-02-28T00:36:52;96890.04;;;-0.93;70.65
72118;BME280;59992;47.490;8.736;2023-02-28T00:39:22;96887.02;;;-0.92;70.47
72118;BME280;59992;47.490;8.736;2023-02-28T00:41:52;96889.52;;;-0.92;70.36
72118;BME280;59992;47.490;8.736;2023-02-28T00:44:22;96890.95;;;-0.93;70.39
72118;BME280;59992;47.490;8.736;2023-02-28T00:46:51;96891.83;;;-0.94;70.65
72118;BME280;59992;47.490;8.736;2023-02-28T00:49:22;96885.90;;;-0.94;70.38
72118;BME280;59992;47.490;8.736;2023-02-28T00:51:53;96890.27;;;-0.94;70.76
72118;BME280;59992;47.490;8.736;2023-02-28T00:54:23;96886.67;;;-0.93;70.90
72118;BME280;59992;47.490;8.736;2023-02-28T00:56:53;96887.84;;;-0.91;70.88
72118;BME280;59992;47.490;8.736;2023-02-28T00:59:23;96886.36;;;-0.90;71.02
72118;BME280;59992;47.490;8.736;2023-02-28T01:01:52;96885.33;;;-0.90;71.25
72118;BME280;59992;47.490;8.736;2023-02-28T01:04:22;96882.48;;;-0.91;70.83
72118;BME280;59992;47.490;8.736;2023-02-28T01:06:51;96886.51;;;-0.92;70.76
72118;BME280;59992;47.490;8.736;2023-02-28T01:09:21;96885.20;;;-0.92;70.60
72118;BME280;59992;47.490;8.736;2023-02-28T01:11:51;96886.52;;;-0.93;70.66
72118;BME280;59992;47.490;8.736;2023-02-28T01:14:20;96887.48;;;-0.95;70.66
72118;BME280;59992;47.490;8.736;2023-02-28T01:16:50;96885.18;;;-0.95;70.64
72118;BME280;59992;47.490;8.736;2023-02-28T01:19:20;96887.34;;;-0.92;70.53
72118;BME280;59992;47.490;8.736;2023-02-28T01:21:50;96885.79;;;-0.89;70.69
72118;BME280;59992;47.490;8.736;2023-02-28T01:24:19;96887.70;;;-0.87;70.63
72118;BME280;59992;47.490;8.736;2023-02-28T01:26:49;96884.98;;;-0.86;70.56
72118;BME280;59992;47.490;8.736;2023-02-28T01:29:19;96887.95;;;-0.88;70.65
72118;BME280;59992;47.490;8.736;2023-02-28T01:31:48;96884.40;;;-0.86;70.62
72118;BME280;59992;47.490;8.736;2023-02-28T01:34:27;96888.14;;;-0.86;70.46
72118;BME280;59992;47.490;8.736;2023-02-28T01:36:57;96893.47;;;-0.87;70.65
72118;BME280;59992;47.490;8.736;2023-02-28T01:39:28;96892.69;;;-0.88;70.64
72118;BME280;59992;47.490;8.736;2023-02-28T01:41:59;96889.70;;;-0.86;70.41
72118;BME280;59992;47.490;8.736;2023-02-28T01:44:57;96890.95;;;-0.85;70.47
72118;BME280;59992;47.490;8.736;2023-02-28T01:47:30;96890.18;;;-0.86;70.43
72118;BME280;59992;47.490;8.736;2023-02-28T01:50:04;96887.48;;;-0.87;70.31
72118;BME280;59992;47.490;8.736;2023-02-28T01:52:35;96888.98;;;-0.87;70.47
72118;BME280;59992;47.490;8.736;2023-02-28T01:55:07;96887.70;;;-0.87;70.66
72118;BME280;59992;47.490;8.736;2023-02-28T01:57:40;96887.35;;;-0.89;70.20
72118;BME280;59992;47.490;8.736;2023-02-28T02:00:15;96883.27;;;-0.91;70.53
72118;BME280;59992;47.490;8.736;2023-02-28T02:02:52;96884.42;;;-0.92;70.61
72118;BME280;59992;47.490;8.736;2023-02-28T02:05:25;96885.65;;;-0.91;70.62
72118;BME280;59992;47.490;8.736;2023-02-28T02:07:57;96888.90;;;-0.88;70.50
72118;BME280;59992;47.490;8.736;2023-02-28T02:10:32;96883.84;;;-0.87;70.21
72118;BME280;59992;47.490;8.736;2023-02-28T02:13:11;96886.95;;;-0.86;70.28
72118;BME280;59992;47.490;8.736;2023-02-28T02:15:53;96883.80;;;-0.88;70.43
72118;BME280;59992;47.490;8.736;2023-02-28T02:18:30;96881.27;;;-0.86;70.48
72118;BME280;59992;47.490;8.736;2023-02-28T02:21:28;96881.61;;;-0.84;70.30
72118;BME280;59992;47.490;8.736;2023-02-28T02:24:33;96880.69;;;-0.85;70.42
72118;BME280;59992;47.490;8.736;2023-02-28T02:27:19;96880.02;;;-0.86;70.20
72118;BME280;59992;47.490;8.736;2023-02-28T02:30:07;96877.39;;;-0.88;70.43
72118;BME280;59992;47.490;8.736;2023-02-28T02:33:03;96874.55;;;-0.90;70.34
72118;BME280;59992;47.490;8.736;2023-02-28T02:35:40;96869.95;;;-0.87;70.56
72118;BME280;59992;47.490;8.736;2023-02-28T02:38:16;96868.40;;;-0.88;70.37
72118;BME280;59992;47.490;8.736;2023-02-28T02:40:54;96865.02;;;-0.88;70.34
72118;BME280;59992;47.490;8.736;2023-02-28T02:43:29;96861.79;;;-0.89;70.46
72118;BME280;59992;47.490;8.736;2023-02-28T02:46:06;96864.02;;;-0.89;70.42
72118;BME280;59992;47.490;8.736;2023-02-28T02:48:40;96865.80;;;-0.89;70.23
72118;BME280;59992;47.490;8.736;2023-02-28T02:51:14;96862.42;;;-0.90;70.34
72118;BME280;59992;47.490;8.736;2023-02-28T02:53:47;96864.94;;;-0.90;70.49
72118;BME280;59992;47.490;8.736;2023-02-28T02:56:19;96865.88;;;-0.91;70.36
72118;BME280;59992;47.490;8.736;2023-02-28T02:58:51;96864.09;;;-0.93;70.51
72118;BME280;59992;47.490;8.736;2023-02-28T03:01:24;96860.92;;;-0.94;70.15
72118;BME280;59992;47.490;8.736;2023-02-28T03:03:59;96857.27;;;-0.97;70.59
72118;BME280;59992;47.490;8.736;2023-02-28T03:06:30;96858.36;;;-0.97;70.75
72118;BME280;59992;47.490;8.736;2023-02-28T03:09:00;96858.21;;;-0.97;70.74
72118;BME280;59992;47.490;8.736;2023-02-28T03:11:30;96858.56;;;-0.96;70.46
72118;BME280;59992;47.490;8.736;2023-02-28T03:14:20;96859.08;;;-0.96;70.65
72118;BME280;59992;47.490;8.736;2023-02-28T03:17:06;96853.14;;;-0.95;70.78
72118;BME280;59992;47.490;8.736;2023-02-28T03:19:49;96848.34;;;-0.94;70.87
72118;BME280;59992;47.490;8.736;2023-02-28T03:22:40;96851.48;;;-0.95;70.59
72118;BME280;59992;47.490;8.736;2023-02-28T03:25:17;96850.55;;;-0.97;70.66
72118;BME280;59992;47.490;8.736;2023-02-28T03:27:55;96837.94;;;-0.99;70.93
72118;BME280;59992;47.490;8.736;2023-02-28T03:30:35;96850.54;;;-0.91;71.38
72118;BME280;59992;47.490;8.736;2023-02-28T03:33:08;96854.30;;;-0.89;70.95
72118;BME280;59992;47.490;8.736;2023-02-28T03:35:45;96855.89;;;-0.91;70.90
72118;BME280;59992;47.490;8.736;2023-02-28T03:38:20;96854.17;;;-0.91;70.89
72118;BME280;59992;47.490;8.736;2023-02-28T03:40:54;96853.70;;;-0.92;70.61
72118;BME280;59992;47.490;8.736;2023-02-28T03:43:30;96856.48;;;-0.92;70.53
72118;BME280;59992;47.490;8.736;2023-02-28T03:46:06;96864.83;;;-0.94;70.39
72118;BME280;59992;47.490;8.736;2023-02-28T03:48:40;96868.33;;;-0.96;70.59
72118;BME280;59992;47.490;8.736;2023-02-28T03:51:16;96863.55;;;-0.96;71.00
72118;BME280;59992;47.490;8.736;2023-02-28T03:53:52;96864.25;;;-0.93;70.73
72118;BME280;59992;47.490;8.736;2023-02-28T03:56:27;96863.78;;;-0.93;70.71
72118;BME280;59992;47.490;8.736;2023-02-28T03:59:02;96866.66;;;-0.96;70.76
72118;BME280;59992;47.490;8.736;2023-02-28T04:01:38;96868.34;;;-0.96;70.56
72118;BME280;59992;47.490;8.736;2023-02-28T04:04:10;96866.38;;;-0.98;70.48
72118;BME280;59992;47.490;8.736;2023-02-28T04:06:40;96861.32;;;-1.01;70.78
72118;BME280;59992;47.490;8.736;2023-02-28T04:09:12;96863.58;;;-0.98;70.99
72118;BME280;59992;47.490;8.736;2023-02-28T04:11:43;96867.29;;;-1.00;70.77
72118;BME280;59992;47.490;8.736;2023-02-28T04:14:14;96856.85;;;-1.06;70.52
72118;BME280;59992;47.490;8.736;2023-02-28T04:16:44;96866.27;;;-1.01;70.47
72118;BME280;59992;47.490;8.736;2023-02-28T04:19:15;96870.38;;;-1.07;70.60
72118;BME280;59992;47.490;8.736;2023-02-28T04:21:46;96872.91;;;-1.08;70.57
72118;BME280;59992;47.490;8.736;2023-02-28T04:24:18;96882.38;;;-1.08;70.62
72118;BME280;59992;47.490;8.736;2023-02-28T04:26:49;96881.45;;;-1.10;70.82
72118;BME280;59992;47.490;8.736;2023-02-28T04:29:22;96885.02;;;-1.07;70.81
72118;BME280;59992;47.490;8.736;2023-02-28T04:31:51;96884.61;;;-1.08;70.90
72118;BME280;59992;47.490;8.736;2023-02-28T04:34:22;96883.52;;;-1.08;70.73
72118;BME280;59992;47.490;8.736;2023-02-28T04:36:53;96884.52;;;-1.06;70.64
72118;BME280;59992;47.490;8.736;2023-02-28T04:39:25;96884.07;;;-1.06;70.80
72118;BME280;59992;47.490;8.736;2023-02-28T04:41:55;96883.73;;;-1.09;70.89
72118;BME280;59992;47.490;8.736;2023-02-28T04:44:25;96885.42;;;-1.12;70.81
72118;BME280;59992;47.490;8.736;2023-02-28T04:46:55;96887.51;;;-1.11;70.91
72118;BME280;59992;47.490;8.736;2023-02-28T04:49:25;96888.45;;;-1.11;70.71
72118;BME280;59992;47.490;8.736;2023-02-28T04:51:56;96881.09;;;-1.15;71.05
72118;BME280;59992;47.490;8.736;2023-02-28T04:54:25;96889.20;;;-1.10;70.95
72118;BME280;59992;47.490;8.736;2023-02-28T04:56:55;96892.67;;;-1.09;70.88
72118;BME280;59992;47.490;8.736;2023-02-28T04:59:26;96887.63;;;-1.09;70.74
72118;BME280;59992;47.490;8.736;2023-02-28T05:01:56;96890.56;;;-1.10;71.06
72118;BME280;59992;47.490;8.736;2023-02-28T05:04:26;96892.53;;;-1.10;70.85
72118;BME280;59992;47.490;8.736;2023-02-28T05:06:56;96895.16;;;-1.09;70.82
72118;BME280;59992;47.490;8.736;2023-02-28T05:09:25;96897.44;;;-1.07;70.79
72118;BME280;59992;47.490;8.736;2023-02-28T05:11:55;96894.46;;;-1.05;70.64
72118;BME280;59992;47.490;8.736;2023-02-28T05:14:25;96893.82;;;-1.04;70.55
72118;BME280;59992;47.490;8.736;2023-02-28T05:16:54;96900.05;;;-1.03;70.68
72118;BME280;59992;47.490;8.736;2023-02-28T05:19:24;96902.58;;;-1.01;70.54
72118;BME280;59992;47.490;8.736;2023-02-28T05:21:55;96907.27;;;-1.02;70.67
72118;BME280;59992;47.490;8.736;2023-02-28T05:24:24;96906.27;;;-1.00;70.44
72118;BME280;59992;47.490;8.736;2023-02-28T05:26:54;96910.30;;;-0.98;70.58
72118;BME280;59992;47.490;8.736;2023-02-28T05:29:24;96910.89;;;-1.01;70.59
72118;BME280;59992;47.490;8.736;2023-02-28T05:31:54;96910.05;;;-1.02;70.69
72118;BME280;59992;47.490;8.736;2023-02-28T05:34:24;96907.85;;;-1.03;70.60
72118;BME280;59992;47.490;8.736;2023-02-28T05:36:55;96913.55;;;-1.01;70.29
72118;BME280;59992;47.490;8.736;2023-02-28T05:39:25;96915.83;;;-0.99;70.32
72118;BME280;59992;47.490;8.736;2023-02-28T05:41:54;96915.73;;;-0.99;70.19
72118;BME280;59992;47.490;8.736;2023-02-28T05:44:24;96914.52;;;-1.00;70.35
72118;BME280;59992;47.490;8.736;2023-02-28T05:46:54;96908.36;;;-1.07;70.55
72118;BME280;59992;47.490;8.736;2023-02-28T05:49:24;96915.38;;;-1.02;70.71
72118;BME280;59992;47.490;8.736;2023-02-28T05:51:54;96917.36;;;-1.03;70.76
72118;BME280;59992;47.490;8.736;2023-02-28T05:54:24;96917.10;;;-1.01;70.42
72118;BME280;59992;47.490;8.736;2023-02-28T05:56:54;96918.42;;;-1.03;70.31
72118;BME280;59992;47.490;8.736;2023-02-28T05:59:24;96927.75;;;-1.06;70.30
72118;BME280;59992;47.490;8.736;2023-02-28T06:01:54;96923.25;;;-1.06;70.66
72118;BME280;59992;47.490;8.736;2023-02-28T06:04:23;96933.80;;;-1.06;70.71
72118;BME280;59992;47.490;8.736;2023-02-28T06:06:53;96930.97;;;-1.05;70.16
72118;BME280;59992;47.490;8.736;2023-02-28T06:09:23;96934.27;;;-1.07;70.21
72118;BME280;59992;47.490;8.736;2023-02-28T06:11:53;96936.52;;;-1.07;70.40
72118;BME280;59992;47.490;8.736;2023-02-28T06:14:23;96935.52;;;-1.06;70.48
72118;BME280;59992;47.490;8.736;2023-02-28T06:16:52;96932.58;;;-1.10;69.99
72118;BME280;59992;47.490;8.736;2023-02-28T06:19:22;96930.95;;;-1.12;70.28
72118;BME280;59992;47.490;8.736;2023-02-28T06:21:54;96932.04;;;-1.13;69.88
72118;BME280;59992;47.490;8.736;2023-02-28T06:24:26;96941.00;;;-1.13;69.85
72118;BME280;59992;47.490;8.736;2023-02-28T06:26:57;96939.91;;;-1.14;69.75
72118;BME280;59992;47.490;8.736;2023-02-28T06:29:35;96942.30;;;-1.14;69.84
72118;BME280;59992;47.490;8.736;2023-02-28T06:32:08;96945.73;;;-1.14;69.40
72118;BME280;59992;47.490;8.736;2023-02-28T06:34:37;96946.36;;;-1.14;69.79
72118;BME280;59992;47.490;8.736;2023-02-28T06:37:07;96951.14;;;-1.14;69.75
72118;BME280;59992;47.490;8.736;2023-02-28T06:39:37;96955.98;;;-1.15;69.49
72118;BME280;59992;47.490;8.736;2023-02-28T06:42:06;96965.53;;;-1.12;69.38
72118;BME280;59992;47.490;8.736;2023-02-28T06:44:36;96967.91;;;-1.10;69.56
72118;BME280;59992;47.490;8.736;2023-02-28T06:47:06;96968.98;;;-1.07;69.67
72118;BME280;59992;47.490;8.736;2023-02-28T06:49:36;96968.37;;;-1.09;69.45
72118;BME280;59992;47.490;8.736;2023-02-28T06:52:07;96971.98;;;-1.11;69.81
72118;BME280;59992;47.490;8.736;2023-02-28T06:54:38;96972.89;;;-1.09;69.84
72118;BME280;59992;47.490;8.736;2023-02-28T06:57:08;96969.35;;;-1.08;69.49
72118;BME280;59992;47.490;8.736;2023-02-28T06:59:38;96970.09;;;-1.06;69.82
72118;BME280;59992;47.490;8.736;2023-02-28T07:02:09;96973.95;;;-1.01;69.88
72118;BME280;59992;47.490;8.736;2023-02-28T07:04:38;96980.73;;;-0.98;70.19
72118;BME280;59992;47.490;8.736;2023-02-28T07:07:12;96980.92;;;-0.91;69.70
72118;BME280;59992;47.490;8.736;2023-02-28T07:09:41;96984.27;;;-0.87;69.21
72118;BME280;59992;47.490;8.736;2023-02-28T07:12:12;96986.42;;;-0.85;69.23
72118;BME280;59992;47.490;8.736;2023-02-28T07:14:41;96989.30;;;-0.83;69.09
72118;BME280;59992;47.490;8.736;2023-02-28T07:17:11;96994.88;;;-0.82;68.90
72118;BME280;59992;47.490;8.736;2023-02-28T07:19:41;96997.96;;;-0.82;68.89
72118;BME280;59992;47.490;8.736;2023-02-28T07:22:11;97000.17;;;-0.84;69.08
72118;BME280;59992;47.490;8.736;2023-02-28T07:24:40;96993.89;;;-0.86;68.94
72118;BME280;59992;47.490;8.736;2023-02-28T07:27:10;96998.14;;;-0.84;69.13
72118;BME280;59992;47.490;8.736;2023-02-28T07:29:40;96997.01;;;-0.80;69.36
72118;BME280;59992;47.490;8.736;2023-02-28T07:32:09;96996.34;;;-0.77;69.05
72118;BME280;59992;47.490;8.736;2023-02-28T07:34:39;96997.92;;;-0.79;69.17
72118;BME280;59992;47.490;8.736;2023-02-28T07:37:09;96998.73;;;-0.72;69.18
72118;BME280;59992;47.490;8.736;2023-02-28T07:39:39;96999.05;;;-0.68;68.99
72118;BME280;59992;47.490;8.736;2023-02-28T07:42:10;97003.30;;;-0.66;68.80
72118;BME280;59992;47.490;8.736;2023-02-28T07:44:41;97002.89;;;-0.66;68.97
72118;BME280;59992;47.490;8.736;2023-02-28T07:47:11;97005.21;;;-0.65;68.56
72118;BME280;59992;47.490;8.736;2023-02-28T07:49:40;97001.38;;;-0.62;68.81
72118;BME280;59992;47.490;8.736;2023-02-28T07:52:10;97001.73;;;-0.60;68.86
72118;BME280;59992;47.490;8.736;2023-02-28T07:54:41;97003.04;;;-0.62;68.72
72118;BME280;59992;47.490;8.736;2023-02-28T07:57:11;97004.98;;;-0.62;69.01
72118;BME280;59992;47.490;8.736;2023-02-28T07:59:41;97007.17;;;-0.63;68.98
72118;BME280;59992;47.490;8.736;2023-02-28T08:02:13;97004.41;;;-0.63;68.78
72118;BME280;59992;47.490;8.736;2023-02-28T08:04:43;97010.69;;;-0.62;68.62
72118;BME280;59992;47.490;8.736;2023-02-28T08:07:15;97018.84;;;-0.64;68.54
72118;BME280;59992;47.490;8.736;2023-02-28T08:09:45;97020.73;;;-0.66;68.77
72118;BME280;59992;47.490;8.736;2023-02-28T08:12:14;97021.36;;;-0.62;68.87
72118;BME280;59992;47.490;8.736;2023-02-28T08:14:43;97022.21;;;-0.58;68.75
72118;BME280;59992;47.490;8.736;2023-02-28T08:17:13;97021.21;;;-0.58;68.75
72118;BME280;59992;47.490;8.736;2023-02-28T08:19:42;97020.88;;;-0.54;68.85
72118;BME280;59992;47.490;8.736;2023-02-28T08:22:14;97023.14;;;-0.49;68.93
72118;BME280;59992;47.490;8.736;2023-02-28T08:24:44;97023.66;;;-0.44;68.67
72118;BME280;59992;47.490;8.736;2023-02-28T08:27:13;97021.36;;;-0.38;68.52
72118;BME280;59992;47.490;8.736;2023-02-28T08:29:46;97022.59;;;-0.36;67.92
72118;BME280;59992;47.490;8.736;2023-02-28T08:32:16;97029.17;;;-0.34;67.75
72118;BME280;59992;47.490;8.736;2023-02-28T08:34:46;97028.95;;;-0.32;67.81
72118;BME280;59992;47.490;8.736;2023-02-28T08:37:16;97027.34;;;-0.29;67.83
72118;BME280;59992;47.490;8.736;2023-02-28T08:39:45;97025.44;;;-0.26;67.75
72118;BME280;59992;47.490;8.736;2023-02-28T08:42:14;97026.31;;;-0.25;67.60
72118;BME280;59992;47.490;8.736;2023-02-28T08:44:44;97025.97;;;-0.23;67.66
72118;BME280;59992;47.490;8.736;2023-02-28T08:47:14;97028.85;;;-0.25;67.00
72118;BME280;59992;47.490;8.736;2023-02-28T08:49:45;97026.33;;;-0.24;66.97
72118;BME280;59992;47.490;8.736;2023-02-28T08:52:14;97024.33;;;-0.22;66.76
72118;BME280;59992;47.490;8.736;2023-02-28T08:54:44;97021.59;;;-0.19;66.80
72118;BME280;59992;47.490;8.736;2023-02-28T08:57:14;97019.16;;;-0.16;66.87
72118;BME280;59992;47.490;8.736;2023-02-28T08:59:43;97012.60;;;-0.13;66.64
72118;BME280;59992;47.490;8.736;2023-02-28T09:02:15;97017.50;;;-0.09;66.92
72118;BME280;59992;47.490;8.736;2023-02-28T09:04:45;97018.95;;;-0.05;66.63
72118;BME280;59992;47.490;8.736;2023-02-28T09:07:14;97024.07;;;-0.01;66.47
72118;BME280;59992;47.490;8.736;2023-02-28T09:09:45;97029.61;;;0.01;66.40
72118;BME280;59992;47.490;8.736;2023-02-28T09:12:23;97032.27;;;-0.02;65.83
72118;BME280;59992;47.490;8.736;2023-02-28T09:14:53;97041.28;;;-0.11;65.91
72118;BME280;59992;47.490;8.736;2023-02-28T09:17:23;97045.95;;;-0.21;66.40
72118;BME280;59992;47.490;8.736;2023-02-28T09:19:53;97051.18;;;-0.18;66.78
72118;BME280;59992;47.490;8.736;2023-02-28T09:22:24;97052.84;;;-0.14;66.60
72118;BME280;59992;47.490;8.736;2023-02-28T09:24:53;97052.09;;;-0.08;67.12
72118;BME280;59992;47.490;8.736;2023-02-28T09:27:23;97060.60;;;-0.02;67.21
72118;BME280;59992;47.490;8.736;2023-02-28T09:29:53;97054.98;;;0.03;66.40
72118;BME280;59992;47.490;8.736;2023-02-28T09:32:22;97052.88;;;0.05;66.20
72118;BME280;59992;47.490;8.736;2023-02-28T09:34:52;97054.61;;;0.10;66.46
72118;BME280;59992;47.490;8.736;2023-02-28T09:37:22;97043.82;;;0.11;66.52
72118;BME280;59992;47.490;8.736;2023-02-28T09:39:52;97058.15;;;0.19;65.82
72118;BME280;59992;47.490;8.736;2023-02-28T09:42:25;97056.84;;;0.19;65.87
72118;BME280;59992;47.490;8.736;2023-02-28T09:45:00;97051.77;;;0.20;65.91
72118;BME280;59992;47.490;8.736;2023-02-28T09:47:33;97053.70;;;0.21;65.35
72118;BME280;59992;47.490;8.736;2023-02-28T09:50:15;97053.02;;;0.21;65.12
72118;BME280;59992;47.490;8.736;2023-02-28T09:52:50;97056.24;;;0.18;64.63
72118;BME280;59992;47.490;8.736;2023-02-28T09:55:25;97062.05;;;0.08;65.11
72118;BME280;59992;47.490;8.736;2023-02-28T09:57:58;97058.33;;;0.05;64.78
72118;BME280;59992;47.490;8.736;2023-02-28T10:00:33;97069.56;;;0.08;64.83
72118;BME280;59992;47.490;8.736;2023-02-28T10:03:23;97068.86;;;0.05;64.62
72118;BME280;59992;47.490;8.736;2023-02-28T10:05:58;97071.95;;;0.09;64.77
72118;BME280;59992;47.490;8.736;2023-02-28T10:08:36;97068.75;;;0.10;64.80
72118;BME280;59992;47.490;8.736;2023-02-28T10:11:14;97067.59;;;0.16;65.17
72118;BME280;59992;47.490;8.736;2023-02-28T10:13:52;97075.09;;;0.18;64.77
72118;BME280;59992;47.490;8.736;2023-02-28T10:16:27;97070.17;;;0.19;64.93
72118;BME280;59992;47.490;8.736;2023-02-28T10:19:03;97069.61;;;0.20;65.04
72118;BME280;59992;47.490;8.736;2023-02-28T10:21:37;97078.29;;;0.21;65.07
72118;BME280;59992;47.490;8.736;2023-02-28T10:24:16;97082.50;;;0.22;64.93
72118;BME280;59992;47.490;8.736;2023-02-28T10:26:48;97083.10;;;0.20;64.71
72118;BME280;59992;47.490;8.736;2023-02-28T10:29:21;97085.99;;;0.23;64.92
72118;BME280;59992;47.490;8.736;2023-02-28T10:31:51;97086.80;;;0.24;65.09
72118;BME280;59992;47.490;8.736;2023-02-28T10:34:20;97090.88;;;0.24;64.85
72118;BME280;59992;47.490;8.736;2023-02-28T10:36:51;97094.02;;;0.22;65.08
72118;BME280;59992;47.490;8.736;2023-02-28T10:42:26;97097.30;;;0.31;65.45
72118;BME280;59992;47.490;8.736;2023-02-28T10:45:12;97095.40;;;0.25;65.38
72118;BME280;59992;47.490;8.736;2023-02-28T10:47:51;97096.33;;;0.22;65.61
72118;BME280;59992;47.490;8.736;2023-02-28T10:50:32;97097.44;;;0.12;65.67
72118;BME280;59992;47.490;8.736;2023-02-28T10:53:16;97097.44;;;0.20;66.08
72118;BME280;59992;47.490;8.736;2023-02-28T10:55:57;97099.97;;;0.26;66.05
72118;BME280;59992;47.490;8.736;2023-02-28T10:58:29;97103.79;;;0.29;65.44
72118;BME280;59992;47.490;8.736;2023-02-28T11:01:00;97100.89;;;0.32;65.38
72118;BME280;59992;47.490;8.736;2023-02-28T11:03:34;97095.61;;;0.25;65.32
72118;BME280;59992;47.490;8.736;2023-02-28T11:06:12;97102.98;;;0.24;65.25
72118;BME280;59992;47.490;8.736;2023-02-28T11:08:48;97096.45;;;0.24;65.05
72118;BME280;59992;47.490;8.736;2023-02-28T11:11:20;97096.48;;;0.22;65.24
72118;BME280;59992;47.490;8.736;2023-02-28T11:13:53;97087.45;;;0.14;65.70
72118;BME280;59992;47.490;8.736;2023-02-28T11:16:33;97091.97;;;0.25;65.50
72118;BME280;59992;47.490;8.736;2023-02-28T11:19:05;97090.91;;;0.28;65.32
72118;BME280;59992;47.490;8.736;2023-02-28T11:21:37;97093.43;;;0.35;65.25
72118;BME280;59992;47.490;8.736;2023-02-28T11:24:19;97092.92;;;0.38;65.14
72118;BME280;59992;47.490;8.736;2023-02-28T11:26:53;97096.65;;;0.39;64.68
72118;BME280;59992;47.490;8.736;2023-02-28T11:29:24;97089.31;;;0.40;64.85
72118;BME280;59992;47.490;8.736;2023-02-28T11:32:13;97096.77;;;0.43;64.98
72118;BME280;59992;47.490;8.736;2023-02-28T11:34:46;97094.73;;;0.43;64.85
72118;BME280;59992;47.490;8.736;2023-02-28T11:37:19;97093.87;;;0.45;65.10
72118;BME280;59992;47.490;8.736;2023-02-28T11:39:48;97091.90;;;0.44;65.05
72118;BME280;59992;47.490;8.736;2023-02-28T11:42:37;97090.88;;;0.47;65.05
72118;BME280;59992;47.490;8.736;2023-02-28T11:45:44;97089.44;;;0.52;64.85
72118;BME280;59992;47.490;8.736;2023-02-28T11:48:21;97094.91;;;0.56;64.98
72118;BME280;59992;47.490;8.736;2023-02-28T11:51:00;97100.14;;;0.55;64.74
72118;BME280;59992;47.490;8.736;2023-02-28T11:53:49;97101.04;;;0.55;64.70
72118;BME280;59992;47.490;8.736;2023-02-28T11:56:27;97101.09;;;0.55;64.45
72118;BME280;59992;47.490;8.736;2023-02-28T11:59:22;97093.84;;;0.54;64.70
72118;BME280;59992;47.490;8.736;2023-02-28T12:02:22;97091.50;;;0.58;64.74
72118;BME280;59992;47.490;8.736;2023-02-28T12:05:01;97095.42;;;0.61;64.46
72118;BME280;59992;47.490;8.736;2023-02-28T12:07:46;97099.73;;;0.62;64.68
72118;BME280;59992;47.490;8.736;2023-02-28T12:10:23;97097.19;;;0.65;64.28
72118;BME280;59992;47.490;8.736;2023-02-28T12:13:05;97094.84;;;0.65;64.06
72118;BME280;59992;47.490;8.736;2023-02-28T12:16:09;97089.92;;;0.59;64.06
72118;BME280;59992;47.490;8.736;2023-02-28T12:18:53;97086.27;;;0.58;64.22
72118;BME280;59992;47.490;8.736;2023-02-28T12:21:33;97083.23;;;0.63;64.44
72118;BME280;59992;47.490;8.736;2023-02-28T12:24:26;97081.61;;;0.67;64.29
72118;BME280;59992;47.490;8.736;2023-02-28T12:27:02;97081.17;;;0.71;63.99
72118;BME280;59992;47.490;8.736;2023-02-28T12:29:40;97074.92;;;0.71;64.26
72118;BME280;59992;47.490;8.736;2023-02-28T12:32:16;97082.35;;;0.77;64.31
72118;BME280;59992;47.490;8.736;2023-02-28T12:34:50;97081.31;;;0.79;64.10
72118;BME280;59992;47.490;8.736;2023-02-28T12:37:27;97084.98;;;0.84;64.11
72118;BME280;59992;47.490;8.736;2023-02-28T12:40:02;97083.08;;;0.80;63.89
72118;BME280;59992;47.490;8.736;2023-02-28T12:42:38;97083.80;;;0.80;64.06
72118;BME280;59992;47.490;8.736;2023-02-28T12:45:13;97078.85;;;0.84;64.05
72118;BME280;59992;47.490;8.736;2023-02-28T12:47:48;97079.24;;;0.82;63.57
72118;BME280;59992;47.490;8.736;2023-02-28T12:50:22;97078.77;;;0.79;63.53
72118;BME280;59992;47.490;8.736;2023-02-28T12:52:58;97081.02;;;0.82;63.65
72118;BME280;59992;47.490;8.736;2023-02-28T12:55:35;97078.36;;;0.85;63.95
72118;BME280;59992;47.490;8.736;2023-02-28T12:58:14;97079.85;;;0.86;63.57
72118;BME280;59992;47.490;8.736;2023-02-28T13:01:14;97075.88;;;0.90;63.71
72118;BME280;59992;47.490;8.736;2023-02-28T13:04:01;97079.43;;;0.93;63.55
72118;BME280;59992;47.490;8.736;2023-02-28T13:06:49;97087.59;;;0.88;63.51
72118;BME280;59992;47.490;8.736;2023-02-28T13:09:26;97078.77;;;0.91;63.81
72118;BME280;59992;47.490;8.736;2023-02-28T13:12:00;97079.69;;;0.90;63.37
72118;BME280;59992;47.490;8.736;2023-02-28T13:14:36;97073.92;;;0.88;63.44
72118;BME280;59992;47.490;8.736;2023-02-28T13:17:14;97074.43;;;0.89;63.54
72118;BME280;59992;47.490;8.736;2023-02-28T13:19:58;97073.69;;;0.86;63.30
72118;BME280;59992;47.490;8.736;2023-02-28T13:22:43;97078.56;;;0.88;63.26
72118;BME280;59992;47.490;8.736;2023-02-28T13:34:37;97075.39;;;0.97;63.87
72118;BME280;59992;47.490;8.736;2023-02-28T13:37:36;97076.28;;;1.01;63.86
72118;BME280;59992;47.490;8.736;2023-02-28T13:40:30;97076.16;;;1.04;63.71
72118;BME280;59992;47.490;8.736;2023-02-28T13:43:09;97075.45;;;1.03;63.56
72118;BME280;59992;47.490;8.736;2023-02-28T13:45:38;97078.77;;;1.01;63.57
72118;BME280;59992;47.490;8.736;2023-02-28T13:48:19;97080.36;;;0.96;63.88
72118;BME280;59992;47.490;8.736;2023-02-28T13:50:54;97083.12;;;0.98;64.03